createdAt,value
2018-07-23T00:01:42.984Z,97.00
2018-07-23T00:04:11.893Z,97.40
2018-07-23T00:06:40.728Z,97.20
2018-07-23T00:09:09.696Z,97.50
2018-07-23T00:11:38.623Z,97.50
2018-07-23T00:14:07.484Z,97.80
2018-07-23T00:16:36.373Z,97.90
2018-07-23T00:19:05.292Z,98.50
2018-07-23T00:21:34.277Z,98.40
2018-07-23T00:24:03.184Z,98.30
2018-07-23T00:26:32.096Z,98.40
2018-07-23T00:29:01.005Z,98.60
2018-07-23T00:31:29.917Z,98.30
2018-07-23T00:33:58.881Z,98.40
2018-07-23T00:36:27.827Z,98.40
2018-07-23T00:38:56.820Z,98.70
2018-07-23T00:41:25.791Z,99.00
2018-07-23T00:43:54.680Z,98.90
2018-07-23T00:46:23.596Z,98.90
2018-07-23T00:48:52.470Z,99.00
2018-07-23T00:51:21.345Z,99.10
2018-07-23T00:53:50.221Z,99.10
2018-07-23T00:56:19.125Z,99.10
2018-07-23T00:58:47.988Z,99.50
2018-07-23T01:01:16.872Z,99.70
2018-07-23T01:03:45.748Z,99.60
2018-07-23T01:06:14.611Z,99.70
2018-07-23T01:08:43.554Z,99.90
2018-07-23T01:11:12.418Z,99.90
2018-07-23T01:13:41.331Z,99.90
2018-07-23T01:16:10.184Z,99.90
2018-07-23T01:18:39.100Z,99.90
2018-07-23T01:21:08.024Z,99.90
2018-07-23T01:23:36.935Z,99.90
2018-07-23T01:26:06.137Z,99.90
2018-07-23T01:28:35.165Z,99.90
2018-07-23T01:31:04.084Z,99.90
2018-07-23T01:33:33.101Z,99.90
2018-07-23T01:36:02.010Z,99.90
2018-07-23T01:38:30.985Z,99.90
2018-07-23T01:40:59.937Z,99.90
2018-07-23T01:43:28.916Z,99.90
2018-07-23T01:45:57.866Z,99.90
2018-07-23T01:48:26.836Z,99.90
2018-07-23T01:50:55.871Z,99.90
2018-07-23T01:53:24.863Z,99.90
2018-07-23T01:55:53.784Z,99.90
2018-07-23T01:58:22.712Z,99.90
2018-07-23T02:00:51.592Z,99.90
2018-07-23T02:03:20.528Z,99.90
2018-07-23T02:05:49.416Z,99.90
2018-07-23T02:08:18.408Z,99.90
2018-07-23T02:10:47.361Z,99.90
2018-07-23T02:13:16.227Z,99.90
2018-07-23T02:15:45.156Z,99.90
2018-07-23T02:18:14.065Z,99.90
2018-07-23T02:20:43.860Z,99.90
2018-07-23T02:23:12.737Z,99.90
2018-07-23T02:25:41.633Z,99.90
2018-07-23T02:28:10.146Z,99.90
2018-07-23T02:30:39.059Z,99.90
2018-07-23T02:33:07.988Z,99.90
2018-07-23T02:35:37.255Z,99.90
2018-07-23T02:38:06.319Z,99.90
2018-07-23T02:40:35.326Z,99.90
2018-07-23T02:43:04.264Z,99.90
2018-07-23T02:45:33.215Z,99.90
2018-07-23T02:48:02.123Z,99.90
2018-07-23T02:50:31.083Z,99.90
2018-07-23T02:53:00.021Z,99.90
2018-07-23T02:55:28.958Z,99.90
2018-07-23T02:57:57.911Z,99.90
2018-07-23T03:00:26.933Z,99.90
2018-07-23T03:02:55.907Z,99.90
2018-07-23T03:05:24.871Z,99.90
2018-07-23T03:07:53.810Z,99.90
2018-07-23T03:10:22.718Z,99.90
2018-07-23T03:12:51.616Z,99.90
2018-07-23T03:15:20.521Z,99.90
2018-07-23T03:17:49.457Z,99.90
2018-07-23T03:20:18.348Z,99.90
2018-07-23T03:22:47.352Z,99.90
2018-07-23T03:25:16.256Z,99.90
2018-07-23T03:27:45.188Z,99.90
2018-07-23T03:30:14.103Z,99.90
2018-07-23T03:32:43.034Z,99.90
2018-07-23T03:35:11.935Z,99.90
2018-07-23T03:37:40.880Z,99.90
2018-07-23T03:40:09.775Z,99.90
2018-07-23T03:42:38.760Z,99.90
2018-07-23T03:45:07.753Z,99.90
2018-07-23T03:47:36.825Z,99.90
2018-07-23T03:50:06.268Z,99.90
2018-07-23T03:52:35.206Z,99.90
2018-07-23T03:55:04.272Z,99.90
2018-07-23T03:57:33.176Z,99.90
2018-07-23T04:00:02.087Z,99.90
2018-07-23T04:02:31.166Z,99.90
2018-07-23T04:05:00.105Z,99.90
2018-07-23T04:07:29.000Z,99.90
2018-07-23T04:09:58.004Z,99.90
2018-07-23T04:12:26.896Z,99.90
2018-07-23T04:14:55.912Z,99.90
2018-07-23T04:17:24.905Z,99.90
2018-07-23T04:19:53.894Z,99.90
2018-07-23T04:22:22.845Z,99.90
2018-07-23T04:24:51.868Z,99.90
2018-07-23T04:27:20.837Z,99.90
2018-07-23T04:29:49.784Z,99.90
2018-07-23T04:32:18.701Z,99.90
2018-07-23T04:34:47.588Z,99.90
2018-07-23T04:37:16.500Z,99.90
2018-07-23T04:39:45.419Z,99.90
2018-07-23T04:42:14.346Z,99.90
2018-07-23T04:44:43.260Z,99.90
2018-07-23T04:47:12.144Z,99.90
2018-07-23T04:49:41.105Z,99.90
2018-07-23T04:52:10.057Z,99.90
2018-07-23T04:54:38.960Z,99.90
2018-07-23T04:57:08.077Z,99.90
2018-07-23T04:59:36.953Z,99.90
2018-07-23T05:02:06.022Z,99.90
2018-07-23T05:04:34.921Z,99.90
2018-07-23T05:07:03.892Z,99.90
2018-07-23T05:09:32.834Z,99.90
2018-07-23T05:12:01.778Z,99.50
2018-07-23T05:14:30.702Z,99.10
2018-07-23T05:16:59.605Z,97.90
2018-07-23T05:19:28.497Z,97.90
2018-07-23T05:21:57.412Z,98.60
2018-07-23T05:24:26.357Z,98.80
2018-07-23T05:26:55.292Z,97.20
2018-07-23T05:29:24.589Z,95.00
2018-07-23T05:31:53.630Z,95.90
2018-07-23T05:34:22.615Z,95.10
2018-07-23T05:36:51.696Z,95.00
2018-07-23T05:39:20.666Z,94.50
2018-07-23T05:41:49.585Z,92.70
2018-07-23T05:44:18.527Z,92.30
2018-07-23T05:46:47.436Z,91.90
2018-07-23T05:49:16.372Z,89.60
2018-07-23T05:51:45.265Z,91.00
2018-07-23T05:54:14.383Z,91.80
2018-07-23T05:56:43.301Z,91.50
2018-07-23T05:59:12.213Z,91.90
2018-07-23T06:01:41.112Z,91.50
2018-07-23T06:04:10.021Z,92.70
2018-07-23T06:06:38.880Z,89.50
2018-07-23T06:09:09.181Z,90.80
2018-07-23T06:11:38.104Z,88.90
2018-07-23T06:14:07.118Z,88.20
2018-07-23T06:16:36.092Z,85.60
2018-07-23T06:19:05.093Z,82.40
2018-07-23T06:21:33.982Z,81.50
2018-07-23T06:24:02.913Z,82.60
2018-07-23T06:26:31.825Z,87.90
2018-07-23T06:29:00.781Z,81.40
2018-07-23T06:31:29.666Z,78.40
2018-07-23T06:33:58.572Z,81.20
2018-07-23T06:36:27.560Z,81.90
2018-07-23T06:38:56.475Z,83.40
2018-07-23T06:41:25.424Z,90.90
2018-07-23T06:43:54.314Z,90.30
2018-07-23T06:46:23.253Z,85.80
2018-07-23T06:48:52.151Z,87.70
2018-07-23T06:51:21.840Z,86.00
2018-07-23T06:53:50.767Z,86.10
2018-07-23T06:56:19.684Z,90.30
2018-07-23T06:58:48.584Z,90.60
2018-07-23T07:01:17.496Z,93.40
2018-07-23T07:03:46.411Z,92.20
2018-07-23T07:06:15.397Z,92.30
2018-07-23T07:08:44.268Z,92.10
2018-07-23T07:11:13.196Z,91.90
2018-07-23T07:13:42.072Z,91.50
2018-07-23T07:16:11.061Z,91.20
2018-07-23T07:18:39.996Z,90.70
2018-07-23T07:21:09.017Z,87.00
2018-07-23T07:23:37.920Z,91.90
2018-07-23T07:26:06.910Z,92.80
2018-07-23T07:28:35.858Z,91.10
2018-07-23T07:31:04.833Z,90.00
2018-07-23T07:33:33.754Z,82.70
2018-07-23T07:36:02.692Z,82.50
2018-07-23T07:38:31.668Z,78.50
2018-07-23T07:41:00.572Z,80.50
2018-07-23T07:43:29.567Z,74.90
2018-07-23T07:45:58.433Z,72.40
2018-07-23T07:48:27.376Z,71.70
2018-07-23T07:50:56.321Z,64.60
2018-07-23T07:53:25.258Z,59.30
2018-07-23T07:55:54.248Z,58.80
2018-07-23T07:58:23.235Z,56.10
2018-07-23T08:00:52.143Z,57.90
2018-07-23T08:03:21.132Z,55.90
2018-07-23T08:05:50.032Z,58.90
2018-07-23T08:08:18.974Z,57.40
2018-07-23T08:10:47.923Z,61.30
2018-07-23T08:13:16.863Z,63.80
2018-07-23T08:15:45.817Z,71.40
2018-07-23T08:18:14.737Z,73.40
2018-07-23T08:20:43.635Z,73.10
2018-07-23T08:23:12.576Z,74.10
2018-07-23T08:25:41.475Z,74.10
2018-07-23T08:28:10.413Z,71.20
2018-07-23T08:30:39.361Z,71.90
2018-07-23T08:33:08.482Z,69.20
2018-07-23T08:35:37.378Z,64.70
2018-07-23T08:38:06.454Z,68.60
2018-07-23T08:40:35.438Z,67.50
2018-07-23T08:43:04.498Z,64.50
2018-07-23T08:45:33.417Z,67.30
2018-07-23T08:48:02.332Z,65.70
2018-07-23T08:50:31.314Z,65.40
2018-07-23T08:53:00.323Z,67.30
2018-07-23T08:55:29.324Z,65.20
2018-07-23T08:57:58.217Z,66.00
2018-07-23T09:00:27.200Z,68.80
2018-07-23T09:02:56.121Z,68.00
2018-07-23T09:05:25.103Z,66.20
2018-07-23T09:07:54.040Z,61.10
2018-07-23T09:10:23.075Z,55.90
2018-07-23T09:12:52.392Z,59.30
2018-07-23T09:15:21.413Z,68.40
2018-07-23T09:17:50.353Z,64.00
2018-07-23T09:20:19.297Z,64.80
2018-07-23T09:22:48.187Z,62.60
2018-07-23T09:25:17.152Z,62.90
2018-07-23T09:27:46.063Z,65.90
2018-07-23T09:30:20.147Z,61.90
2018-07-23T09:32:49.029Z,63.40
2018-07-23T09:35:17.929Z,64.10
2018-07-23T09:37:46.885Z,65.60
2018-07-23T09:40:15.748Z,65.50
2018-07-23T09:42:44.660Z,62.40
2018-07-23T09:45:13.549Z,66.10
2018-07-23T09:47:42.568Z,68.00
2018-07-23T09:50:11.484Z,68.10
2018-07-23T09:52:40.441Z,71.90
2018-07-23T09:55:09.376Z,70.70
2018-07-23T09:57:38.288Z,72.80
2018-07-23T10:00:07.372Z,69.20
2018-07-23T10:02:36.311Z,71.90
2018-07-23T10:05:05.185Z,74.40
2018-07-23T10:07:34.118Z,73.10
2018-07-23T10:10:03.102Z,71.10
2018-07-23T10:12:32.095Z,68.80
2018-07-23T10:15:00.970Z,67.70
2018-07-23T10:17:29.896Z,65.00
2018-07-23T10:19:58.757Z,65.80
2018-07-23T10:22:27.717Z,70.20
2018-07-23T10:24:56.636Z,71.40
2018-07-23T10:27:25.576Z,72.90
2018-07-23T10:29:54.653Z,72.90
2018-07-23T10:32:23.611Z,76.30
2018-07-23T10:34:52.512Z,71.80
2018-07-23T10:37:21.477Z,72.80
2018-07-23T10:39:50.368Z,74.70
2018-07-23T10:42:19.306Z,65.40
2018-07-23T10:44:48.284Z,67.80
2018-07-23T10:47:17.174Z,65.50
2018-07-23T10:49:46.104Z,66.90
2018-07-23T10:52:15.044Z,68.50
2018-07-23T10:54:44.049Z,69.10
2018-07-23T10:57:13.153Z,69.60
2018-07-23T10:59:42.072Z,65.10
2018-07-23T11:02:11.013Z,64.50
2018-07-23T11:04:40.119Z,64.10
2018-07-23T11:07:08.997Z,64.80
2018-07-23T11:09:37.995Z,67.80
2018-07-23T11:12:07.000Z,64.90
2018-07-23T11:14:36.021Z,70.20
2018-07-23T11:17:04.904Z,64.90
2018-07-23T11:19:33.840Z,68.80
2018-07-23T11:22:02.733Z,75.00
2018-07-23T11:24:31.679Z,71.70
2018-07-23T11:27:00.589Z,69.70
2018-07-23T11:29:29.589Z,66.80
2018-07-23T11:31:58.591Z,72.90
2018-07-23T11:34:27.464Z,73.60
2018-07-23T11:36:56.419Z,76.80
2018-07-23T11:39:25.357Z,74.60
2018-07-23T11:41:54.355Z,75.50
2018-07-23T11:44:23.345Z,75.80
2018-07-23T11:46:52.357Z,75.10
2018-07-23T11:49:21.269Z,72.30
2018-07-23T11:51:50.218Z,76.70
2018-07-23T11:54:19.131Z,75.50
2018-07-23T11:56:48.092Z,74.80
2018-07-23T11:59:17.020Z,79.10
2018-07-23T12:01:45.968Z,73.40
2018-07-23T12:04:14.982Z,75.20
2018-07-23T12:06:43.944Z,73.90
2018-07-23T12:09:12.853Z,74.60
2018-07-23T12:11:41.831Z,71.40
2018-07-23T12:14:10.740Z,73.30
2018-07-23T12:16:39.691Z,76.50
2018-07-23T12:19:08.601Z,75.40
2018-07-23T12:21:37.525Z,80.50
2018-07-23T12:24:06.636Z,75.00
2018-07-23T12:26:35.567Z,77.80
2018-07-23T12:29:04.465Z,75.00
2018-07-23T12:31:33.336Z,71.40
2018-07-23T12:34:02.332Z,75.00
2018-07-23T12:36:31.257Z,70.20
2018-07-23T12:39:00.192Z,72.60
2018-07-23T12:41:29.104Z,72.90
2018-07-23T12:46:26.545Z,73.00
2018-07-23T12:48:55.493Z,74.10
2018-07-23T12:51:24.456Z,73.60
2018-07-23T12:53:53.432Z,70.10
2018-07-23T12:56:22.413Z,71.80
2018-07-23T12:58:51.378Z,72.60
2018-07-23T13:01:20.260Z,72.70
2018-07-23T13:03:49.252Z,69.80
2018-07-23T13:06:18.133Z,71.10
2018-07-23T13:08:47.168Z,71.80
2018-07-23T13:11:16.129Z,70.00
2018-07-23T13:13:45.091Z,73.70
2018-07-23T13:16:13.992Z,71.70
2018-07-23T13:18:42.935Z,71.50
2018-07-23T13:21:11.856Z,73.20
2018-07-23T13:23:40.777Z,71.00
2018-07-23T13:26:09.716Z,71.60
2018-07-23T13:28:38.656Z,72.30
2018-07-23T13:31:07.673Z,73.30
2018-07-23T13:33:36.548Z,69.90
2018-07-23T13:36:05.491Z,69.90
2018-07-23T13:38:34.408Z,71.40
2018-07-23T13:41:03.406Z,73.10
2018-07-23T13:43:32.344Z,68.60
2018-07-23T13:46:01.344Z,70.00
2018-07-23T13:48:30.240Z,71.50
2018-07-23T13:50:59.348Z,68.40
2018-07-23T13:53:28.303Z,71.00
2018-07-23T13:55:57.249Z,67.80
2018-07-23T13:58:26.148Z,74.20
2018-07-23T14:00:55.160Z,72.60
2018-07-23T14:03:24.065Z,70.80
2018-07-23T14:05:53.072Z,70.70
2018-07-23T14:08:22.032Z,70.20
2018-07-23T14:10:51.034Z,70.70
2018-07-23T14:13:19.917Z,68.70
2018-07-23T14:15:48.889Z,69.80
2018-07-23T14:18:17.769Z,72.70
2018-07-23T14:20:46.731Z,70.80
2018-07-23T14:23:15.616Z,72.80
2018-07-23T14:25:44.532Z,69.60
2018-07-23T14:28:13.396Z,68.30
2018-07-23T14:30:42.387Z,68.40
2018-07-23T14:33:11.305Z,69.00
2018-07-23T14:35:40.212Z,70.80
2018-07-23T14:38:09.173Z,68.50
2018-07-23T14:40:38.056Z,66.40
2018-07-23T14:43:06.985Z,69.60
2018-07-23T14:45:35.892Z,68.60
2018-07-23T14:48:04.856Z,69.00
2018-07-23T14:50:33.736Z,70.90
2018-07-23T14:53:02.640Z,67.20
2018-07-23T14:55:31.557Z,67.20
2018-07-23T14:58:00.489Z,70.00
2018-07-23T15:00:29.385Z,66.70
2018-07-23T15:02:58.316Z,68.10
2018-07-23T15:05:27.208Z,68.50
2018-07-23T15:07:56.148Z,71.50
2018-07-23T15:10:25.157Z,69.80
2018-07-23T15:12:54.170Z,72.40
2018-07-23T15:15:23.120Z,72.10
2018-07-23T15:17:52.083Z,68.50
2018-07-23T15:20:21.036Z,67.60
2018-07-23T15:22:49.928Z,66.70
2018-07-23T15:25:18.860Z,67.00
2018-07-23T15:27:47.710Z,66.60
2018-07-23T15:30:16.661Z,67.60
2018-07-23T15:32:45.541Z,68.70
2018-07-23T15:35:14.496Z,67.10
2018-07-23T15:37:43.409Z,68.20
2018-07-23T15:40:12.400Z,66.20
2018-07-23T15:42:41.369Z,69.30
2018-07-23T15:45:10.379Z,68.90
2018-07-23T15:47:39.333Z,68.80
2018-07-23T15:50:08.389Z,65.00
2018-07-23T15:52:37.655Z,67.30
2018-07-23T15:55:06.660Z,67.60
2018-07-23T15:57:35.532Z,67.40
2018-07-23T16:00:04.991Z,68.50
2018-07-23T16:02:33.984Z,66.70
2018-07-23T16:05:02.921Z,63.80
2018-07-23T16:07:31.792Z,64.60
2018-07-23T16:10:00.735Z,66.00
2018-07-23T16:12:30.848Z,64.20
2018-07-23T16:14:59.840Z,64.30
2018-07-23T16:17:28.755Z,65.60
2018-07-23T16:19:57.996Z,66.40
2018-07-23T16:22:26.935Z,64.90
2018-07-23T16:24:55.927Z,64.80
2018-07-23T16:27:24.930Z,67.20
2018-07-23T16:29:53.953Z,64.60
2018-07-23T16:32:23.008Z,66.70
2018-07-23T16:34:51.973Z,67.60
2018-07-23T16:37:20.896Z,69.30
2018-07-23T16:39:49.790Z,67.00
2018-07-23T16:42:18.696Z,66.70
2018-07-23T16:44:47.576Z,66.80
2018-07-23T16:47:16.473Z,65.30
2018-07-23T16:49:45.335Z,68.20
2018-07-23T16:52:14.604Z,65.00
2018-07-23T16:54:43.580Z,67.70
2018-07-23T16:57:12.571Z,68.70
2018-07-23T16:59:41.561Z,68.80
2018-07-23T17:02:10.479Z,64.90
2018-07-23T17:04:39.361Z,67.30
2018-07-23T17:07:08.226Z,65.60
2018-07-23T17:09:37.161Z,66.70
2018-07-23T17:12:06.064Z,66.50
2018-07-23T17:14:34.956Z,65.60
2018-07-23T17:17:03.796Z,66.90
2018-07-23T17:19:32.688Z,66.30
2018-07-23T17:22:01.548Z,66.20
2018-07-23T17:24:30.432Z,68.10
2018-07-23T17:26:59.424Z,67.20
2018-07-23T17:29:28.371Z,67.30
2018-07-23T17:31:57.284Z,67.70
2018-07-23T17:34:26.275Z,67.90
2018-07-23T17:36:55.236Z,65.70
2018-07-23T17:39:24.253Z,64.00
2018-07-23T17:41:53.217Z,65.70
2018-07-23T17:44:22.369Z,66.00
2018-07-23T17:46:51.288Z,65.70
2018-07-23T17:49:20.264Z,67.00
2018-07-23T17:51:49.140Z,64.80
2018-07-23T17:54:18.083Z,67.50
2018-07-23T17:56:46.943Z,67.40
2018-07-23T17:59:15.833Z,64.80
2018-07-23T18:01:44.740Z,68.70
2018-07-23T18:04:13.712Z,69.00
2018-07-23T18:06:42.648Z,71.30
2018-07-23T18:09:13.019Z,69.90
2018-07-23T18:11:42.290Z,73.90
2018-07-23T18:14:11.219Z,74.10
2018-07-23T18:16:40.391Z,68.90
2018-07-23T18:19:09.437Z,71.30
2018-07-23T18:21:38.500Z,71.10
2018-07-23T18:24:07.425Z,69.10
2018-07-23T18:26:36.472Z,70.20
2018-07-23T18:29:05.423Z,71.00
2018-07-23T18:31:34.343Z,70.80
2018-07-23T18:34:03.204Z,71.40
2018-07-23T18:36:32.104Z,72.60
2018-07-23T18:39:00.928Z,71.40
2018-07-23T18:41:29.861Z,72.50
2018-07-23T18:43:58.797Z,75.00
2018-07-23T18:46:27.780Z,74.10
2018-07-23T18:49:36.991Z,77.40
2018-07-23T18:52:06.037Z,73.60
2018-07-23T18:54:35.311Z,77.10
2018-07-23T18:57:05.377Z,74.40
2018-07-23T18:59:34.455Z,80.90
2018-07-23T19:02:04.648Z,83.50
2018-07-23T19:04:33.667Z,82.00
2018-07-23T19:07:02.604Z,81.60
2018-07-23T19:09:31.797Z,81.20
2018-07-23T19:12:01.118Z,83.10
2018-07-23T19:14:30.020Z,82.60
2018-07-23T19:16:59.851Z,90.60
2018-07-23T19:19:28.715Z,91.20
2018-07-23T19:21:57.694Z,93.10
2018-07-23T19:24:26.612Z,93.10
2018-07-23T19:26:55.547Z,93.70
2018-07-23T19:29:24.504Z,93.80
2018-07-23T19:31:53.455Z,92.80
2018-07-23T19:34:22.443Z,94.00
2018-07-23T19:36:51.566Z,94.50
2018-07-23T19:39:21.500Z,94.20
2018-07-23T19:41:50.537Z,94.70
2018-07-23T19:44:19.644Z,94.80
2018-07-23T19:46:48.644Z,96.50
2018-07-23T19:49:17.609Z,96.40
2018-07-23T19:51:46.766Z,96.90
2018-07-23T19:54:15.678Z,97.00
2018-07-23T19:56:44.625Z,96.90
2018-07-23T19:59:13.563Z,95.90
2018-07-23T20:01:42.423Z,95.50
2018-07-23T20:04:11.405Z,94.70
2018-07-23T20:06:40.272Z,96.30
2018-07-23T20:09:10.442Z,97.70
2018-07-23T20:11:39.312Z,96.90
2018-07-23T20:14:08.212Z,96.50
2018-07-23T20:16:37.128Z,96.80
2018-07-23T20:19:06.112Z,98.00
2018-07-23T20:21:35.047Z,95.40
2018-07-23T20:24:03.996Z,97.50
2018-07-23T20:26:32.904Z,97.70
2018-07-23T20:29:01.772Z,98.20
2018-07-23T20:31:30.684Z,98.30
2018-07-23T20:33:59.600Z,98.80
2018-07-23T20:36:28.532Z,98.80
2018-07-23T20:38:57.449Z,97.90
2018-07-23T20:41:26.420Z,98.50
2018-07-23T20:43:56.128Z,99.10
2018-07-23T20:46:25.132Z,98.40
2018-07-23T20:48:54.141Z,98.90
2018-07-23T20:51:23.274Z,99.30
2018-07-23T20:53:52.358Z,99.90
2018-07-23T20:56:21.391Z,99.90
2018-07-23T20:58:50.393Z,99.90
2018-07-23T21:01:19.469Z,99.90
2018-07-23T21:03:48.678Z,99.90
2018-07-23T21:06:18.003Z,99.90
2018-07-23T21:08:47.132Z,99.90
2018-07-23T21:11:16.365Z,99.90
2018-07-23T21:13:45.292Z,99.90
2018-07-23T21:16:14.167Z,99.90
2018-07-23T21:18:43.089Z,99.90
2018-07-23T21:21:12.006Z,99.90
2018-07-23T21:23:40.920Z,99.90
2018-07-23T21:26:09.780Z,99.90
2018-07-23T21:28:38.684Z,99.90
2018-07-23T21:31:07.752Z,99.90
2018-07-23T21:33:36.644Z,99.90
2018-07-23T21:36:05.589Z,99.90
2018-07-23T21:38:34.518Z,99.90
2018-07-23T21:41:03.452Z,99.90
2018-07-23T21:43:32.363Z,99.90
2018-07-23T21:46:01.233Z,99.90
2018-07-23T21:48:30.177Z,99.90
2018-07-23T21:50:59.032Z,99.90
2018-07-23T21:53:27.948Z,99.90
2018-07-23T21:55:56.848Z,99.90
2018-07-23T21:58:25.987Z,99.90
2018-07-23T22:00:54.985Z,99.90
2018-07-23T22:03:23.945Z,99.90
2018-07-23T22:05:52.899Z,99.90
2018-07-23T22:08:21.865Z,99.90
2018-07-23T22:10:50.850Z,99.90
2018-07-23T22:13:19.882Z,99.90
2018-07-23T22:15:48.916Z,99.90
2018-07-23T22:18:18.014Z,99.90
2018-07-23T22:20:47.020Z,99.90
2018-07-23T22:23:15.975Z,99.90
2018-07-23T22:25:44.872Z,99.90
2018-07-23T22:28:13.757Z,99.90
2018-07-23T22:30:42.656Z,99.90
2018-07-23T22:33:11.512Z,99.90
2018-07-23T22:35:40.656Z,99.90
2018-07-23T22:38:09.584Z,99.90
2018-07-23T22:40:38.484Z,99.90
2018-07-23T22:43:07.360Z,99.90
2018-07-23T22:45:36.219Z,99.90
2018-07-23T22:48:05.160Z,99.90
2018-07-23T22:50:34.084Z,99.90
2018-07-23T22:53:02.960Z,99.90
2018-07-23T22:55:31.832Z,99.90
2018-07-23T22:58:00.718Z,99.90
2018-07-23T23:00:29.584Z,99.90
2018-07-23T23:02:58.476Z,99.90
2018-07-23T23:05:27.345Z,99.90
2018-07-23T23:07:56.225Z,99.90
2018-07-23T23:10:25.149Z,99.90
2018-07-23T23:12:54.080Z,99.90
2018-07-23T23:15:22.984Z,99.90
2018-07-23T23:17:51.916Z,99.90
2018-07-23T23:20:20.811Z,99.90
2018-07-23T23:22:49.785Z,99.90
2018-07-23T23:25:18.746Z,99.90
2018-07-23T23:27:47.782Z,99.90
2018-07-23T23:30:16.681Z,99.90
2018-07-23T23:32:45.550Z,99.90
2018-07-23T23:35:14.465Z,99.90
2018-07-23T23:37:43.375Z,99.90
2018-07-23T23:40:12.293Z,99.90
2018-07-23T23:42:41.176Z,99.90
2018-07-23T23:45:10.068Z,99.90
2018-07-23T23:47:38.920Z,99.90
2018-07-23T23:50:08.427Z,99.90
2018-07-23T23:52:37.288Z,99.90
2018-07-23T23:55:06.347Z,99.90
2018-07-23T23:57:35.201Z,99.90
